Terminal Aerodrome Forecast
Issued by NWS

Home | Current Version | Previous Version | Text Only | Print | Product List | Glossary On
Versions: 1 2 3 4 5 6 7 8 9 10 11 12 13 14 15 16 17 18 19 20 21 22
000
FTUS41 KBOX 190541 AAA
TAFFMH
TAF AMD
KFMH 190541Z 1906/2006 31010KT P6SM OVC035
     FM190900 30006KT P6SM FEW040 BKN200
     FM191300 28010KT P6SM FEW250
     FM200500 24010KT P6SM FEW250=

USA.gov is the U.S. government's official web portal to all federal, state and local government web resources and services.